Time;durP1;ratioP1;P1;durP2;ratioP2;P2;SDS_P1;SDS_P2;PMS_P1;PMS_P2;Temp;Humidity;BMP_temperature;BMP_pressure;BME280_temperature;BME280_humidity;BME280_pressure;Samples;Min_cycle;Max_cycle;Signal;HPM_P1;HPM_P2
2021/04/12 05:57:00;;;;;;;5.25;3.17;;;;;;;;;;10516639;27;20732;-86
2021/04/12 06:47:38;;;;;;;3.10;2.50;;;;;;;;;;10538144;28;20070;-88
2021/04/12 06:52:59;;;;;;;3.42;2.22;;;;;;;;;;10520360;28;20092;-88
2021/04/12 06:58:20;;;;;;;2.00;1.13;;;;;;;;;;10534690;28;20048;-84
2021/04/12 07:03:40;;;;;;;5.22;3.30;;;;;;;;;;10501551;28;20078;-87
2021/04/12 07:09:03;;;;;;;4.82;2.92;;;;;;;;;;10498926;28;20031;-87
2021/04/12 07:14:23;;;;;;;4.28;2.72;;;;;;;;;;10507692;28;20036;-87
2021/04/12 07:19:42;;;;;;;4.28;3.45;;;;;;;;;;10502133;28;20025;-88
2021/04/12 07:25:02;;;;;;;4.80;2.40;;;;;;;;;;10526421;28;20055;-87
2021/04/12 07:30:06;;;;;;;2.33;1.75;;;;;;;;;;10498886;28;20262;-88
2021/04/12 07:35:23;;;;;;;5.35;3.38;;;;;;;;;;10518927;28;20406;-87
2021/04/12 07:40:43;;;;;;;3.80;2.22;;;;;;;;;;10529550;28;20127;-87
2021/04/12 07:45:48;;;;;;;;;;;;;;;;;;10525056;28;20455;-88
2021/04/12 07:50:58;;;;;;;5.32;3.75;;;;;;;;;;10502016;28;19915;-87
2021/04/12 07:56:06;;;;;;;4.72;2.20;;;;;;;;;;10492852;28;20036;-86
2021/04/12 08:01:25;;;;;;;4.20;2.83;;;;;;;;;;10490998;28;20024;-87
2021/04/12 08:06:26;;;;;;;;;;;;;;;;;;10493218;28;20020;-87
2021/04/12 08:11:46;;;;;;;4.95;2.70;;;;;;;;;;10490244;28;19954;-87
2021/04/12 08:17:05;;;;;;;3.95;2.00;;;;;;;;;;10491181;28;20028;-85
2021/04/12 08:22:24;;;;;;;5.38;2.97;;;;;;;;;;10488991;28;20025;-87
2021/04/12 08:27:44;;;;;;;3.70;2.35;;;;;;;;;;10490053;28;20020;-87
2021/04/12 08:33:04;;;;;;;3.83;2.40;;;;;;;;;;10510920;28;20036;-87
2021/04/12 08:38:23;;;;;;;6.22;1.83;;;;;;;;;;10491414;28;20020;-86
2021/04/12 08:43:27;;;;;;;4.15;2.10;;;;;;;;;;10489108;28;20145;-87
2021/04/12 08:48:47;;;;;;;4.63;2.95;;;;;;;;;;10493819;28;20106;-87
2021/04/12 08:54:11;;;;;;;3.97;2.92;;;;;;;;;;10487292;28;20071;-87
2021/04/12 08:59:28;;;;;;;3.70;2.15;;;;;;;;;;10474573;28;20054;-85
2021/04/12 09:04:29;;;;;;;3.90;2.47;;;;;;;;;;10488649;28;20029;-85
2021/04/12 09:09:49;;;;;;;3.53;2.30;;;;;;;;;;10491868;28;20032;-86
2021/04/12 09:15:08;;;;;;;4.65;3.10;;;;;;;;;;10491100;28;20474;-86
2021/04/12 09:20:36;;;;;;;3.88;2.15;;;;;;;;;;10496115;28;20028;-86
2021/04/12 09:25:56;;;;;;;4.13;2.47;;;;;;;;;;10477132;28;20044;-85
2021/04/12 09:31:00;;;;;;;2.45;1.90;;;;;;;;;;10513314;28;20055;-85
2021/04/12 09:36:20;;;;;;;3.20;1.83;;;;;;;;;;10516219;28;20064;-83
2021/04/12 09:41:39;;;;;;;3.08;1.48;;;;;;;;;;10511269;28;20024;-83
2021/04/12 09:46:58;;;;;;;3.20;1.95;;;;;;;;;;10489358;28;20044;-84
2021/04/12 09:52:05;;;;;;;2.95;1.45;;;;;;;;;;10489575;28;20079;-85
2021/04/12 09:57:25;;;;;;;2.70;1.42;;;;;;;;;;10490686;28;20036;-85
2021/04/12 10:02:32;;;;;;;2.13;1.10;;;;;;;;;;10490087;28;20048;-85
2021/04/12 10:07:33;;;;;;;1.83;1.10;;;;;;;;;;10485865;28;20378;-84
2021/04/12 10:12:42;;;;;;;2.08;1.10;;;;;;;;;;10500641;28;20032;-84
2021/04/12 10:17:52;;;;;;;2.00;1.20;;;;;;;;;;10503456;28;20139;-83
2021/04/12 10:23:01;;;;;;;2.70;1.20;;;;;;;;;;10503030;28;20432;-84
2021/04/12 10:28:12;;;;;;;3.27;1.40;;;;;;;;;;10484972;28;20127;-84
2021/04/12 10:33:36;;;;;;;2.25;1.40;;;;;;;;;;10518154;28;20025;-83
2021/04/12 10:38:49;;;;;;;1.92;1.27;;;;;;;;;;10507587;28;20044;-83
2021/04/12 10:44:09;;;;;;;6.07;1.27;;;;;;;;;;10509482;28;20457;-86
2021/04/12 10:49:26;;;;;;;1.67;1.40;;;;;;;;;;10513256;28;20020;-87
2021/04/12 10:54:46;;;;;;;2.78;1.08;;;;;;;;;;10494302;28;20036;-86
2021/04/12 10:59:47;;;;;;;3.63;1.52;;;;;;;;;;10494080;28;20027;-87
2021/04/12 11:04:53;;;;;;;3.38;1.40;;;;;;;;;;10496141;28;20036;-85
2021/04/12 11:09:57;;;;;;;3.00;1.20;;;;;;;;;;10495112;28;20025;-87
2021/04/12 11:15:05;;;;;;;2.97;0.90;;;;;;;;;;10495399;28;20021;-87
2021/04/12 11:20:06;;;;;;;1.85;0.95;;;;;;;;;;10515821;22;20040;-84
2021/04/12 11:25:07;;;;;;;1.95;0.82;;;;;;;;;;10514326;28;20393;-85
2021/04/12 11:30:17;;;;;;;1.27;0.90;;;;;;;;;;10494801;28;20032;-85
2021/04/12 11:35:22;;;;;;;1.85;0.95;;;;;;;;;;10518175;28;20068;-85
2021/04/12 11:40:25;;;;;;;1.45;0.90;;;;;;;;;;10495438;28;20031;-85
2021/04/12 11:45:45;;;;;;;2.05;0.80;;;;;;;;;;10494803;28;20081;-86
2021/04/12 11:50:53;;;;;;;1.45;0.60;;;;;;;;;;10493040;28;20032;-85
2021/04/12 11:56:16;;;;;;;1.58;0.80;;;;;;;;;;10494097;28;20024;-86
2021/04/12 12:01:25;;;;;;;2.10;0.70;;;;;;;;;;10491782;28;20131;-84
2021/04/12 12:06:33;;;;;;;1.23;0.90;;;;;;;;;;10492945;28;20016;-85
2021/04/12 12:11:45;;;;;;;2.30;0.75;;;;;;;;;;10492382;28;20035;-86
2021/04/12 12:16:46;;;;;;;1.63;0.90;;;;;;;;;;10492596;28;20060;-86
2021/04/12 12:21:57;;;;;;;2.08;1.25;;;;;;;;;;10492825;28;20033;-85
2021/04/12 12:27:05;;;;;;;2.15;1.10;;;;;;;;;;10495201;28;20013;-85
2021/04/12 12:32:06;;;;;;;2.95;1.70;;;;;;;;;;10492191;28;20035;-86
2021/04/12 12:37:26;;;;;;;2.78;1.60;;;;;;;;;;10492820;28;20071;-86
2021/04/12 12:42:37;;;;;;;3.15;1.20;;;;;;;;;;10512820;28;20024;-86
2021/04/12 12:47:38;;;;;;;2.30;1.50;;;;;;;;;;10521639;28;20074;-85
2021/04/12 12:52:41;;;;;;;3.08;1.30;;;;;;;;;;10490689;28;20037;-86
2021/04/12 12:57:43;;;;;;;3.28;1.70;;;;;;;;;;10490770;28;20108;-86
2021/04/12 13:02:46;;;;;;;2.20;1.80;;;;;;;;;;10490984;28;20437;-86
2021/04/12 13:07:48;;;;;;;1.20;0.90;;;;;;;;;;10492475;28;20033;-86
2021/04/12 13:12:52;;;;;;;1.50;1.38;;;;;;;;;;10491354;28;20123;-86
2021/04/12 13:17:53;;;;;;;2.83;2.28;;;;;;;;;;10510925;28;20081;-86
2021/04/12 13:23:03;;;;;;;1.70;1.30;;;;;;;;;;10491459;28;20067;-86
2021/04/12 13:28:04;;;;;;;1.35;1.02;;;;;;;;;;10489553;28;20029;-87
2021/04/12 13:33:11;;;;;;;2.35;1.30;;;;;;;;;;10490682;28;20070;-86
2021/04/12 13:38:23;;;;;;;2.40;1.30;;;;;;;;;;10490595;28;20020;-86
2021/04/12 13:43:28;;;;;;;1.90;1.10;;;;;;;;;;10455183;28;20060;-84
2021/04/12 13:48:35;;;;;;;2.50;1.23;;;;;;;;;;10447425;28;20032;-86
2021/04/12 13:53:59;;;;;;;2.05;0.90;;;;;;;;;;10464795;28;20079;-86
2021/04/12 13:59:15;;;;;;;1.60;0.90;;;;;;;;;;10465097;28;20261;-86
2021/04/12 14:04:16;;;;;;;1.58;1.00;;;;;;;;;;10464588;28;20029;-85
2021/04/12 14:09:30;;;;;;;2.28;1.20;;;;;;;;;;10446712;28;20025;-86
2021/04/12 14:14:35;;;;;;;2.33;1.25;;;;;;;;;;10450373;28;20025;-85
2021/04/12 14:19:39;;;;;;;1.75;1.05;;;;;;;;;;10469674;28;20064;-85
2021/04/12 14:24:53;;;;;;;2.13;1.75;;;;;;;;;;10473300;28;20036;-86
2021/04/12 14:30:03;;;;;;;2.03;1.17;;;;;;;;;;10492218;28;20033;-85
2021/04/12 14:35:07;;;;;;;1.75;1.00;;;;;;;;;;10477458;28;20100;-85
2021/04/12 14:40:12;;;;;;;2.55;1.35;;;;;;;;;;10463805;28;20051;-86
2021/04/12 14:45:18;;;;;;;2.10;1.42;;;;;;;;;;10488660;28;20052;-85
2021/04/12 14:50:21;;;;;;;4.32;1.63;;;;;;;;;;10490612;28;20036;-86
2021/04/12 14:55:42;;;;;;;2.55;1.00;;;;;;;;;;10463611;28;20079;-86
2021/04/12 15:00:48;;;;;;;2.10;1.90;;;;;;;;;;10460590;28;20021;-86
2021/04/12 15:05:54;;;;;;;1.63;1.52;;;;;;;;;;10457493;28;20085;-87
2021/04/12 15:11:06;;;;;;;1.00;0.90;;;;;;;;;;10456680;28;20433;-87
2021/04/12 15:16:26;;;;;;;2.00;0.88;;;;;;;;;;10457149;28;20100;-87
2021/04/12 15:21:29;;;;;;;1.23;0.93;;;;;;;;;;10458222;28;20211;-86
2021/04/12 15:26:32;;;;;;;1.92;1.23;;;;;;;;;;10456473;28;20044;-85
2021/04/12 15:31:38;;;;;;;1.20;1.10;;;;;;;;;;10459146;28;20025;-87
2021/04/12 15:36:39;;;;;;;1.38;1.05;;;;;;;;;;10461052;28;20037;-85
2021/04/12 15:41:41;;;;;;;1.85;1.63;;;;;;;;;;10456996;28;20052;-86
2021/04/12 15:46:52;;;;;;;2.17;1.05;;;;;;;;;;10458029;28;20116;-86
2021/04/12 15:52:11;;;;;;;2.38;1.40;;;;;;;;;;10452274;28;20032;-87
2021/04/12 15:57:18;;;;;;;1.38;1.08;;;;;;;;;;10454897;28;20041;-86
2021/04/12 16:02:23;;;;;;;1.60;1.30;;;;;;;;;;10483857;28;20028;-86
2021/04/12 16:07:28;;;;;;;2.63;1.60;;;;;;;;;;10503912;28;20051;-86
2021/04/12 16:12:30;;;;;;;1.75;1.17;;;;;;;;;;10469606;28;20108;-85
2021/04/12 16:17:35;;;;;;;1.50;1.27;;;;;;;;;;10450185;28;20082;-85
2021/04/12 16:22:39;;;;;;;1.08;0.98;;;;;;;;;;10451489;28;20123;-85
2021/04/12 16:28:00;;;;;;;1.95;1.10;;;;;;;;;;10450417;28;20486;-88
2021/04/12 16:33:07;;;;;;;1.90;1.10;;;;;;;;;;10444297;28;20025;-88
2021/04/12 16:38:20;;;;;;;1.98;1.27;;;;;;;;;;10442027;28;20021;-88
2021/04/12 16:43:29;;;;;;;2.00;1.15;;;;;;;;;;10442577;28;20033;-88
2021/04/12 16:48:34;;;;;;;1.42;0.80;;;;;;;;;;10442767;28;20049;-88
2021/04/12 16:53:38;;;;;;;1.33;0.80;;;;;;;;;;10441144;28;20036;-87
2021/04/12 16:58:44;;;;;;;1.48;0.60;;;;;;;;;;10442358;28;20127;-88
2021/04/12 17:03:48;;;;;;;1.40;0.98;;;;;;;;;;10442362;28;20036;-88
2021/04/12 17:09:00;;;;;;;1.50;0.75;;;;;;;;;;10461224;28;20029;-87
2021/04/12 17:14:07;;;;;;;2.45;0.93;;;;;;;;;;10442613;28;20047;-88
2021/04/12 17:19:12;;;;;;;1.27;0.90;;;;;;;;;;10459689;28;20028;-87
2021/04/12 17:24:28;;;;;;;1.23;0.90;;;;;;;;;;10522750;23;20083;-84
2021/04/12 17:29:37;;;;;;;0.60;0.60;;;;;;;;;;10502904;28;20035;-84
2021/04/12 17:34:43;;;;;;;1.95;0.88;;;;;;;;;;10507385;28;20025;-83
2021/04/12 17:39:44;;;;;;;2.40;1.42;;;;;;;;;;10505137;28;20024;-85
2021/04/12 17:44:52;;;;;;;1.98;1.00;;;;;;;;;;10505765;28;20036;-83
2021/04/12 17:49:57;;;;;;;2.28;1.00;;;;;;;;;;10508321;28;20024;-84
2021/04/12 17:55:01;;;;;;;3.17;1.67;;;;;;;;;;10507636;28;20029;-84
2021/04/12 18:00:04;;;;;;;1.38;0.60;;;;;;;;;;10508995;28;20048;-83
2021/04/12 18:05:11;;;;;;;1.75;1.08;;;;;;;;;;10503614;28;20143;-84
2021/04/12 18:10:22;;;;;;;1.30;0.80;;;;;;;;;;10504282;28;20473;-83
2021/04/12 18:15:35;;;;;;;3.13;1.40;;;;;;;;;;10506250;28;20024;-83
2021/04/12 18:20:51;;;;;;;1.20;1.00;;;;;;;;;;10510089;28;20031;-84
2021/04/12 18:25:55;;;;;;;1.40;1.05;;;;;;;;;;10520615;28;20478;-86
2021/04/12 18:30:59;;;;;;;2.08;1.05;;;;;;;;;;10522448;28;20055;-83
2021/04/12 18:36:03;;;;;;;2.45;1.10;;;;;;;;;;10508887;28;20441;-83
2021/04/12 18:41:21;;;;;;;1.60;1.10;;;;;;;;;;10503990;28;20119;-84
2021/04/12 18:46:33;;;;;;;2.30;1.88;;;;;;;;;;10501658;28;20028;-83
2021/04/12 18:51:53;;;;;;;2.70;2.05;;;;;;;;;;10500958;28;20063;-84
2021/04/12 18:57:06;;;;;;;1.77;1.30;;;;;;;;;;10501919;28;20028;-84
2021/04/12 19:02:13;;;;;;;1.83;1.10;;;;;;;;;;10505848;28;20074;-85
2021/04/12 19:07:36;;;;;;;2.97;1.42;;;;;;;;;;10511619;28;20455;-85
2021/04/12 19:12:40;;;;;;;1.60;1.40;;;;;;;;;;10510673;28;20028;-84
2021/04/12 19:18:01;;;;;;;1.77;1.38;;;;;;;;;;10509604;28;20051;-83
2021/04/12 19:23:21;;;;;;;2.10;1.55;;;;;;;;;;10510858;28;20040;-84
2021/04/12 19:28:50;;;;;;;2.42;1.33;;;;;;;;;;10510222;28;20027;-83
2021/04/12 19:34:09;;;;;;;1.87;1.37;;;;;;;;;;10512989;28;20028;-84
2021/04/12 19:39:13;;;;;;;3.25;2.10;;;;;;;;;;10511916;28;20082;-85
2021/04/12 19:44:14;;;;;;;1.92;1.40;;;;;;;;;;10514619;28;20049;-85
2021/04/12 19:49:34;;;;;;;1.30;1.00;;;;;;;;;;10515401;28;20044;-85
2021/04/12 19:54:37;;;;;;;2.45;1.85;;;;;;;;;;10510496;28;20044;-84
2021/04/12 19:59:41;;;;;;;1.92;1.30;;;;;;;;;;10511409;28;20020;-85
2021/04/12 20:04:43;;;;;;;2.60;1.52;;;;;;;;;;10511358;28;20033;-84
2021/04/12 20:09:55;;;;;;;3.40;2.00;;;;;;;;;;10516665;28;20044;-85
2021/04/12 20:14:59;;;;;;;2.55;1.70;;;;;;;;;;10526268;28;20077;-85
2021/04/12 20:20:00;;;;;;;2.08;1.60;;;;;;;;;;10508203;28;20086;-85
